sensor_id;sensor_type;location;lat;lon;timestamp;pressure;altitude;pressure_sealevel;temperature
70969;BMP280;58630;43.022;25.100;2023-06-22T00:00:27;;;;26.40
70969;BMP280;58630;43.022;25.100;2023-06-22T00:02:53;;;;26.40
70969;BMP280;58630;43.022;25.100;2023-06-22T00:05:18;;;;26.30
70969;BMP280;58630;43.022;25.100;2023-06-22T00:07:44;;;;26.30
70969;BMP280;58630;43.022;25.100;2023-06-22T00:10:09;;;;26.30
70969;BMP280;58630;43.022;25.100;2023-06-22T00:12:35;;;;26.20
70969;BMP280;58630;43.022;25.100;2023-06-22T00:15:01;;;;26.20
70969;BMP280;58630;43.022;25.100;2023-06-22T00:17:26;;;;26.10
70969;BMP280;58630;43.022;25.100;2023-06-22T00:19:52;;;;26.10
70969;BMP280;58630;43.022;25.100;2023-06-22T00:22:19;;;;26.10
70969;BMP280;58630;43.022;25.100;2023-06-22T00:24:54;;;;26.20
70969;BMP280;58630;43.022;25.100;2023-06-22T00:27:19;;;;26.20
70969;BMP280;58630;43.022;25.100;2023-06-22T00:29:45;;;;26.10
70969;BMP280;58630;43.022;25.100;2023-06-22T00:32:10;;;;26.10
70969;BMP280;58630;43.022;25.100;2023-06-22T00:34:36;;;;26.10
70969;BMP280;58630;43.022;25.100;2023-06-22T00:37:01;;;;26.00
70969;BMP280;58630;43.022;25.100;2023-06-22T00:39:27;;;;26.00
70969;BMP280;58630;43.022;25.100;2023-06-22T00:41:53;;;;26.00
70969;BMP280;58630;43.022;25.100;2023-06-22T00:44:18;;;;26.00
70969;BMP280;58630;43.022;25.100;2023-06-22T00:46:44;;;;26.00
70969;BMP280;58630;43.022;25.100;2023-06-22T00:49:09;;;;26.10
70969;BMP280;58630;43.022;25.100;2023-06-22T00:51:35;;;;26.00
70969;BMP280;58630;43.022;25.100;2023-06-22T00:54:03;;;;26.10
70969;BMP280;58630;43.022;25.100;2023-06-22T00:56:30;;;;26.00
70969;BMP280;58630;43.022;25.100;2023-06-22T00:58:57;;;;26.00
70969;BMP280;58630;43.022;25.100;2023-06-22T01:01:24;;;;26.00
70969;BMP280;58630;43.022;25.100;2023-06-22T01:03:50;;;;25.90
70969;BMP280;58630;43.022;25.100;2023-06-22T01:06:17;;;;25.80
70969;BMP280;58630;43.022;25.100;2023-06-22T01:18:30;;;;25.90
70969;BMP280;58630;43.022;25.100;2023-06-22T01:20:56;;;;25.90
70969;BMP280;58630;43.022;25.100;2023-06-22T01:23:27;;;;25.80
70969;BMP280;58630;43.022;25.100;2023-06-22T01:26:01;;;;25.80
70969;BMP280;58630;43.022;25.100;2023-06-22T01:28:40;;;;25.80
70969;BMP280;58630;43.022;25.100;2023-06-22T01:31:07;;;;25.60
70969;BMP280;58630;43.022;25.100;2023-06-22T01:33:35;;;;25.60
70969;BMP280;58630;43.022;25.100;2023-06-22T01:36:02;;;;25.50
70969;BMP280;58630;43.022;25.100;2023-06-22T01:38:28;;;;25.50
70969;BMP280;58630;43.022;25.100;2023-06-22T01:40:54;;;;25.50
70969;BMP280;58630;43.022;25.100;2023-06-22T01:43:21;;;;25.30
70969;BMP280;58630;43.022;25.100;2023-06-22T01:45:48;;;;25.30
70969;BMP280;58630;43.022;25.100;2023-06-22T01:48:14;;;;25.20
70969;BMP280;58630;43.022;25.100;2023-06-22T01:50:40;;;;25.20
70969;BMP280;58630;43.022;25.100;2023-06-22T01:53:06;;;;25.20
70969;BMP280;58630;43.022;25.100;2023-06-22T01:55:32;;;;25.10
70969;BMP280;58630;43.022;25.100;2023-06-22T01:57:57;;;;25.00
70969;BMP280;58630;43.022;25.100;2023-06-22T02:00:23;;;;25.00
70969;BMP280;58630;43.022;25.100;2023-06-22T02:05:16;;;;25.10
70969;BMP280;58630;43.022;25.100;2023-06-22T02:10:28;;;;24.90
70969;BMP280;58630;43.022;25.100;2023-06-22T02:12:55;;;;24.80
70969;BMP280;58630;43.022;25.100;2023-06-22T02:15:21;;;;24.80
70969;BMP280;58630;43.022;25.100;2023-06-22T02:17:47;;;;24.80
70969;BMP280;58630;43.022;25.100;2023-06-22T02:20:13;;;;24.80
70969;BMP280;58630;43.022;25.100;2023-06-22T02:22:39;;;;24.80
70969;BMP280;58630;43.022;25.100;2023-06-22T02:25:04;;;;24.90
70969;BMP280;58630;43.022;25.100;2023-06-22T02:27:30;;;;24.90
70969;BMP280;58630;43.022;25.100;2023-06-22T02:29:56;;;;24.90
70969;BMP280;58630;43.022;25.100;2023-06-22T02:32:22;;;;24.90
70969;BMP280;58630;43.022;25.100;2023-06-22T02:34:47;;;;24.90
70969;BMP280;58630;43.022;25.100;2023-06-22T02:37:13;;;;25.00
70969;BMP280;58630;43.022;25.100;2023-06-22T02:39:40;;;;25.00
70969;BMP280;58630;43.022;25.100;2023-06-22T02:42:06;;;;24.90
70969;BMP280;58630;43.022;25.100;2023-06-22T02:44:31;;;;24.80
70969;BMP280;58630;43.022;25.100;2023-06-22T02:46:57;;;;24.80
70969;BMP280;58630;43.022;25.100;2023-06-22T02:49:23;;;;24.80
70969;BMP280;58630;43.022;25.100;2023-06-22T02:51:48;;;;24.80
70969;BMP280;58630;43.022;25.100;2023-06-22T02:54:14;;;;24.70
70969;BMP280;58630;43.022;25.100;2023-06-22T02:56:39;;;;24.70
70969;BMP280;58630;43.022;25.100;2023-06-22T02:59:06;;;;24.60
70969;BMP280;58630;43.022;25.100;2023-06-22T03:01:31;;;;24.60
70969;BMP280;58630;43.022;25.100;2023-06-22T03:04:03;;;;24.60
70969;BMP280;58630;43.022;25.100;2023-06-22T03:06:29;;;;24.50
70969;BMP280;58630;43.022;25.100;2023-06-22T03:09:02;;;;24.60
70969;BMP280;58630;43.022;25.100;2023-06-22T03:11:29;;;;24.60
70969;BMP280;58630;43.022;25.100;2023-06-22T03:13:55;;;;24.60
70969;BMP280;58630;43.022;25.100;2023-06-22T03:16:20;;;;24.60
70969;BMP280;58630;43.022;25.100;2023-06-22T03:18:46;;;;24.60
70969;BMP280;58630;43.022;25.100;2023-06-22T03:21:11;;;;24.50
70969;BMP280;58630;43.022;25.100;2023-06-22T03:23:37;;;;24.60
70969;BMP280;58630;43.022;25.100;2023-06-22T03:26:02;;;;24.60
70969;BMP280;58630;43.022;25.100;2023-06-22T03:28:29;;;;24.60
70969;BMP280;58630;43.022;25.100;2023-06-22T03:30:57;;;;24.60
70969;BMP280;58630;43.022;25.100;2023-06-22T03:33:22;;;;24.60
70969;BMP280;58630;43.022;25.100;2023-06-22T03:35:48;;;;24.70
70969;BMP280;58630;43.022;25.100;2023-06-22T03:38:15;;;;24.70
70969;BMP280;58630;43.022;25.100;2023-06-22T03:40:41;;;;24.70
70969;BMP280;58630;43.022;25.100;2023-06-22T03:43:06;;;;24.70
70969;BMP280;58630;43.022;25.100;2023-06-22T03:45:32;;;;24.80
70969;BMP280;58630;43.022;25.100;2023-06-22T03:47:58;;;;24.70
70969;BMP280;58630;43.022;25.100;2023-06-22T03:50:23;;;;24.70
70969;BMP280;58630;43.022;25.100;2023-06-22T03:52:49;;;;24.70
70969;BMP280;58630;43.022;25.100;2023-06-22T03:55:16;;;;24.70
70969;BMP280;58630;43.022;25.100;2023-06-22T03:57:42;;;;24.70
70969;BMP280;58630;43.022;25.100;2023-06-22T04:00:08;;;;24.70
70969;BMP280;58630;43.022;25.100;2023-06-22T04:02:35;;;;24.60
70969;BMP280;58630;43.022;25.100;2023-06-22T04:05:00;;;;24.60
70969;BMP280;58630;43.022;25.100;2023-06-22T04:07:26;;;;24.60
70969;BMP280;58630;43.022;25.100;2023-06-22T04:09:51;;;;24.60
70969;BMP280;58630;43.022;25.100;2023-06-22T04:12:17;;;;24.60
70969;BMP280;58630;43.022;25.100;2023-06-22T04:14:42;;;;24.50
70969;BMP280;58630;43.022;25.100;2023-06-22T04:17:08;;;;24.50
70969;BMP280;58630;43.022;25.100;2023-06-22T04:19:33;;;;24.40
70969;BMP280;58630;43.022;25.100;2023-06-22T04:21:59;;;;24.50
70969;BMP280;58630;43.022;25.100;2023-06-22T04:24:24;;;;24.40
70969;BMP280;58630;43.022;25.100;2023-06-22T04:26:50;;;;24.40
70969;BMP280;58630;43.022;25.100;2023-06-22T04:29:20;;;;24.40
70969;BMP280;58630;43.022;25.100;2023-06-22T04:31:46;;;;24.40
70969;BMP280;58630;43.022;25.100;2023-06-22T04:34:16;;;;24.30
70969;BMP280;58630;43.022;25.100;2023-06-22T04:36:42;;;;24.40
70969;BMP280;58630;43.022;25.100;2023-06-22T04:39:09;;;;24.40
70969;BMP280;58630;43.022;25.100;2023-06-22T04:41:38;;;;24.30
70969;BMP280;58630;43.022;25.100;2023-06-22T04:44:10;;;;24.30
70969;BMP280;58630;43.022;25.100;2023-06-22T04:46:36;;;;24.30
70969;BMP280;58630;43.022;25.100;2023-06-22T04:49:12;;;;24.30
70969;BMP280;58630;43.022;25.100;2023-06-22T04:51:41;;;;24.30
70969;BMP280;58630;43.022;25.100;2023-06-22T04:54:07;;;;24.40
70969;BMP280;58630;43.022;25.100;2023-06-22T04:56:33;;;;24.40
70969;BMP280;58630;43.022;25.100;2023-06-22T04:58:58;;;;24.50
70969;BMP280;58630;43.022;25.100;2023-06-22T05:01:24;;;;24.50
70969;BMP280;58630;43.022;25.100;2023-06-22T05:03:50;;;;24.50
70969;BMP280;58630;43.022;25.100;2023-06-22T05:06:21;;;;24.40
70969;BMP280;58630;43.022;25.100;2023-06-22T05:08:47;;;;24.40
70969;BMP280;58630;43.022;25.100;2023-06-22T05:11:12;;;;24.40
70969;BMP280;58630;43.022;25.100;2023-06-22T05:13:38;;;;24.30
70969;BMP280;58630;43.022;25.100;2023-06-22T05:16:03;;;;24.40
70969;BMP280;58630;43.022;25.100;2023-06-22T05:18:31;;;;24.40
70969;BMP280;58630;43.022;25.100;2023-06-22T05:20:57;;;;24.30
70969;BMP280;58630;43.022;25.100;2023-06-22T05:23:23;;;;24.30
70969;BMP280;58630;43.022;25.100;2023-06-22T05:25:48;;;;24.30
70969;BMP280;58630;43.022;25.100;2023-06-22T05:28:14;;;;24.40
70969;BMP280;58630;43.022;25.100;2023-06-22T05:30:39;;;;24.40
70969;BMP280;58630;43.022;25.100;2023-06-22T05:33:05;;;;24.40
70969;BMP280;58630;43.022;25.100;2023-06-22T05:35:31;;;;24.40
70969;BMP280;58630;43.022;25.100;2023-06-22T05:37:56;;;;24.40
70969;BMP280;58630;43.022;25.100;2023-06-22T05:40:22;;;;24.40
70969;BMP280;58630;43.022;25.100;2023-06-22T05:42:47;;;;24.50
70969;BMP280;58630;43.022;25.100;2023-06-22T05:45:13;;;;24.50
70969;BMP280;58630;43.022;25.100;2023-06-22T05:47:38;;;;24.60
70969;BMP280;58630;43.022;25.100;2023-06-22T05:50:04;;;;24.50
70969;BMP280;58630;43.022;25.100;2023-06-22T05:52:32;;;;24.50
70969;BMP280;58630;43.022;25.100;2023-06-22T05:54:58;;;;24.50
70969;BMP280;58630;43.022;25.100;2023-06-22T05:57:23;;;;24.50
70969;BMP280;58630;43.022;25.100;2023-06-22T05:59:49;;;;24.50
70969;BMP280;58630;43.022;25.100;2023-06-22T06:02:14;;;;24.50
70969;BMP280;58630;43.022;25.100;2023-06-22T06:04:40;;;;24.50
70969;BMP280;58630;43.022;25.100;2023-06-22T06:07:05;;;;24.50
70969;BMP280;58630;43.022;25.100;2023-06-22T06:09:31;;;;24.50
70969;BMP280;58630;43.022;25.100;2023-06-22T06:11:57;;;;24.50
70969;BMP280;58630;43.022;25.100;2023-06-22T06:14:22;;;;24.60
70969;BMP280;58630;43.022;25.100;2023-06-22T06:16:48;;;;24.60
70969;BMP280;58630;43.022;25.100;2023-06-22T06:19:14;;;;24.50
70969;BMP280;58630;43.022;25.100;2023-06-22T06:21:40;;;;24.60
70969;BMP280;58630;43.022;25.100;2023-06-22T06:24:05;;;;24.60
70969;BMP280;58630;43.022;25.100;2023-06-22T06:26:31;;;;24.60
70969;BMP280;58630;43.022;25.100;2023-06-22T06:28:59;;;;24.60
70969;BMP280;58630;43.022;25.100;2023-06-22T06:31:25;;;;24.60
70969;BMP280;58630;43.022;25.100;2023-06-22T06:33:54;;;;24.60
70969;BMP280;58630;43.022;25.100;2023-06-22T06:36:19;;;;24.70
70969;BMP280;58630;43.022;25.100;2023-06-22T06:38:45;;;;24.70
70969;BMP280;58630;43.022;25.100;2023-06-22T06:41:15;;;;24.70
70969;BMP280;58630;43.022;25.100;2023-06-22T06:43:41;;;;24.70
70969;BMP280;58630;43.022;25.100;2023-06-22T06:46:09;;;;24.70
70969;BMP280;58630;43.022;25.100;2023-06-22T06:48:35;;;;24.70
70969;BMP280;58630;43.022;25.100;2023-06-22T06:51:01;;;;24.70
70969;BMP280;58630;43.022;25.100;2023-06-22T06:53:26;;;;24.70
70969;BMP280;58630;43.022;25.100;2023-06-22T06:55:53;;;;24.70
70969;BMP280;58630;43.022;25.100;2023-06-22T06:58:19;;;;24.70
70969;BMP280;58630;43.022;25.100;2023-06-22T07:00:44;;;;24.80
70969;BMP280;58630;43.022;25.100;2023-06-22T07:03:10;;;;24.80
70969;BMP280;58630;43.022;25.100;2023-06-22T07:05:35;;;;24.80
70969;BMP280;58630;43.022;25.100;2023-06-22T07:08:01;;;;24.80
70969;BMP280;58630;43.022;25.100;2023-06-22T07:10:28;;;;24.80
70969;BMP280;58630;43.022;25.100;2023-06-22T07:12:53;;;;24.90
70969;BMP280;58630;43.022;25.100;2023-06-22T07:15:19;;;;24.90
70969;BMP280;58630;43.022;25.100;2023-06-22T07:17:44;;;;24.90
70969;BMP280;58630;43.022;25.100;2023-06-22T07:20:10;;;;24.90
70969;BMP280;58630;43.022;25.100;2023-06-22T07:22:40;;;;25.00
70969;BMP280;58630;43.022;25.100;2023-06-22T07:25:06;;;;25.00
70969;BMP280;58630;43.022;25.100;2023-06-22T07:27:38;;;;25.00
70969;BMP280;58630;43.022;25.100;2023-06-22T07:30:05;;;;25.00
70969;BMP280;58630;43.022;25.100;2023-06-22T07:32:31;;;;25.00
70969;BMP280;58630;43.022;25.100;2023-06-22T07:34:56;;;;25.10
70969;BMP280;58630;43.022;25.100;2023-06-22T07:37:22;;;;25.10
70969;BMP280;58630;43.022;25.100;2023-06-22T07:39:47;;;;25.10
70969;BMP280;58630;43.022;25.100;2023-06-22T07:42:14;;;;25.10
70969;BMP280;58630;43.022;25.100;2023-06-22T07:44:44;;;;25.10
70969;BMP280;58630;43.022;25.100;2023-06-22T07:47:09;;;;25.10
70969;BMP280;58630;43.022;25.100;2023-06-22T07:49:35;;;;25.10
70969;BMP280;58630;43.022;25.100;2023-06-22T07:52:00;;;;25.10
70969;BMP280;58630;43.022;25.100;2023-06-22T07:54:27;;;;25.20
70969;BMP280;58630;43.022;25.100;2023-06-22T07:56:52;;;;25.20
70969;BMP280;58630;43.022;25.100;2023-06-22T07:59:18;;;;25.20
70969;BMP280;58630;43.022;25.100;2023-06-22T08:01:44;;;;25.20
70969;BMP280;58630;43.022;25.100;2023-06-22T08:04:09;;;;25.20
70969;BMP280;58630;43.022;25.100;2023-06-22T08:06:35;;;;25.30
70969;BMP280;58630;43.022;25.100;2023-06-22T08:09:00;;;;25.30
70969;BMP280;58630;43.022;25.100;2023-06-22T08:11:26;;;;25.30
70969;BMP280;58630;43.022;25.100;2023-06-22T08:13:52;;;;25.30
70969;BMP280;58630;43.022;25.100;2023-06-22T08:16:17;;;;25.30
70969;BMP280;58630;43.022;25.100;2023-06-22T08:18:43;;;;25.30
70969;BMP280;58630;43.022;25.100;2023-06-22T08:21:08;;;;25.40
70969;BMP280;58630;43.022;25.100;2023-06-22T08:23:34;;;;25.40
70969;BMP280;58630;43.022;25.100;2023-06-22T08:26:00;;;;25.40
70969;BMP280;58630;43.022;25.100;2023-06-22T08:28:26;;;;25.40
70969;BMP280;58630;43.022;25.100;2023-06-22T08:30:51;;;;25.40
70969;BMP280;58630;43.022;25.100;2023-06-22T08:33:17;;;;25.40
70969;BMP280;58630;43.022;25.100;2023-06-22T08:35:43;;;;25.50
70969;BMP280;58630;43.022;25.100;2023-06-22T08:38:09;;;;25.50
70969;BMP280;58630;43.022;25.100;2023-06-22T08:40:34;;;;25.50
70969;BMP280;58630;43.022;25.100;2023-06-22T08:43:00;;;;25.50
70969;BMP280;58630;43.022;25.100;2023-06-22T08:45:25;;;;25.50
70969;BMP280;58630;43.022;25.100;2023-06-22T08:47:51;;;;25.50
70969;BMP280;58630;43.022;25.100;2023-06-22T08:50:16;;;;25.60
70969;BMP280;58630;43.022;25.100;2023-06-22T08:52:42;;;;25.60
70969;BMP280;58630;43.022;25.100;2023-06-22T08:55:08;;;;25.60
70969;BMP280;58630;43.022;25.100;2023-06-22T08:57:34;;;;25.60
70969;BMP280;58630;43.022;25.100;2023-06-22T08:59:59;;;;25.60
70969;BMP280;58630;43.022;25.100;2023-06-22T09:03:16;;;;25.70
70969;BMP280;58630;43.022;25.100;2023-06-22T09:05:41;;;;25.80
70969;BMP280;58630;43.022;25.100;2023-06-22T09:08:07;;;;25.80
70969;BMP280;58630;43.022;25.100;2023-06-22T09:10:32;;;;25.90
70969;BMP280;58630;43.022;25.100;2023-06-22T09:12:58;;;;26.00
70969;BMP280;58630;43.022;25.100;2023-06-22T09:15:24;;;;26.00
70969;BMP280;58630;43.022;25.100;2023-06-22T09:17:50;;;;26.10
70969;BMP280;58630;43.022;25.100;2023-06-22T09:20:15;;;;26.10
70969;BMP280;58630;43.022;25.100;2023-06-22T09:22:41;;;;26.20
70969;BMP280;58630;43.022;25.100;2023-06-22T09:25:07;;;;26.20
70969;BMP280;58630;43.022;25.100;2023-06-22T09:27:33;;;;26.20
70969;BMP280;58630;43.022;25.100;2023-06-22T09:29:58;;;;26.20
70969;BMP280;58630;43.022;25.100;2023-06-22T09:32:24;;;;26.20
70969;BMP280;58630;43.022;25.100;2023-06-22T09:34:50;;;;26.20
70969;BMP280;58630;43.022;25.100;2023-06-22T09:37:16;;;;26.30
70969;BMP280;58630;43.022;25.100;2023-06-22T09:39:41;;;;26.30
70969;BMP280;58630;43.022;25.100;2023-06-22T09:42:07;;;;26.30
70969;BMP280;58630;43.022;25.100;2023-06-22T09:44:33;;;;26.40
70969;BMP280;58630;43.022;25.100;2023-06-22T09:46:58;;;;26.40
70969;BMP280;58630;43.022;25.100;2023-06-22T09:49:24;;;;26.40
70969;BMP280;58630;43.022;25.100;2023-06-22T09:51:49;;;;26.50
70969;BMP280;58630;43.022;25.100;2023-06-22T09:54:16;;;;26.50
70969;BMP280;58630;43.022;25.100;2023-06-22T09:56:41;;;;26.50
70969;BMP280;58630;43.022;25.100;2023-06-22T09:59:07;;;;26.50
70969;BMP280;58630;43.022;25.100;2023-06-22T10:01:32;;;;26.50
70969;BMP280;58630;43.022;25.100;2023-06-22T10:03:58;;;;26.60
70969;BMP280;58630;43.022;25.100;2023-06-22T10:06:24;;;;26.60
70969;BMP280;58630;43.022;25.100;2023-06-22T10:08:50;;;;26.60
70969;BMP280;58630;43.022;25.100;2023-06-22T10:11:16;;;;26.60
70969;BMP280;58630;43.022;25.100;2023-06-22T10:13:41;;;;26.60
70969;BMP280;58630;43.022;25.100;2023-06-22T10:16:07;;;;26.70
70969;BMP280;58630;43.022;25.100;2023-06-22T10:18:32;;;;26.70
70969;BMP280;58630;43.022;25.100;2023-06-22T10:20:58;;;;26.70
70969;BMP280;58630;43.022;25.100;2023-06-22T10:23:24;;;;26.70
70969;BMP280;58630;43.022;25.100;2023-06-22T10:25:49;;;;26.70
70969;BMP280;58630;43.022;25.100;2023-06-22T10:28:15;;;;26.70
70969;BMP280;58630;43.022;25.100;2023-06-22T10:30:41;;;;26.70
70969;BMP280;58630;43.022;25.100;2023-06-22T10:33:07;;;;26.70
70969;BMP280;58630;43.022;25.100;2023-06-22T10:35:32;;;;26.70
70969;BMP280;58630;43.022;25.100;2023-06-22T10:37:58;;;;26.80
70969;BMP280;58630;43.022;25.100;2023-06-22T10:40:24;;;;26.80
70969;BMP280;58630;43.022;25.100;2023-06-22T10:42:50;;;;26.90
70969;BMP280;58630;43.022;25.100;2023-06-22T10:45:15;;;;26.90
70969;BMP280;58630;43.022;25.100;2023-06-22T10:47:41;;;;26.90
70969;BMP280;58630;43.022;25.100;2023-06-22T10:50:10;;;;27.00
70969;BMP280;58630;43.022;25.100;2023-06-22T10:52:36;;;;27.00
70969;BMP280;58630;43.022;25.100;2023-06-22T10:55:01;;;;27.00
70969;BMP280;58630;43.022;25.100;2023-06-22T10:57:27;;;;27.00
70969;BMP280;58630;43.022;25.100;2023-06-22T10:59:52;;;;27.10
70969;BMP280;58630;43.022;25.100;2023-06-22T11:02:18;;;;27.10
70969;BMP280;58630;43.022;25.100;2023-06-22T11:04:43;;;;27.10
70969;BMP280;58630;43.022;25.100;2023-06-22T11:07:09;;;;27.20
70969;BMP280;58630;43.022;25.100;2023-06-22T11:09:35;;;;27.20
70969;BMP280;58630;43.022;25.100;2023-06-22T11:12:00;;;;27.30
70969;BMP280;58630;43.022;25.100;2023-06-22T11:14:26;;;;27.40
70969;BMP280;58630;43.022;25.100;2023-06-22T11:16:51;;;;27.40
70969;BMP280;58630;43.022;25.100;2023-06-22T11:19:17;;;;27.40
70969;BMP280;58630;43.022;25.100;2023-06-22T11:21:43;;;;27.40
70969;BMP280;58630;43.022;25.100;2023-06-22T11:24:08;;;;27.50
70969;BMP280;58630;43.022;25.100;2023-06-22T11:26:34;;;;27.60
70969;BMP280;58630;43.022;25.100;2023-06-22T11:29:00;;;;27.60
70969;BMP280;58630;43.022;25.100;2023-06-22T11:31:26;;;;27.70
70969;BMP280;58630;43.022;25.100;2023-06-22T11:33:51;;;;27.80
70969;BMP280;58630;43.022;25.100;2023-06-22T11:36:17;;;;27.90
70969;BMP280;58630;43.022;25.100;2023-06-22T11:38:43;;;;28.10
70969;BMP280;58630;43.022;25.100;2023-06-22T11:41:09;;;;28.10
70969;BMP280;58630;43.022;25.100;2023-06-22T11:43:34;;;;28.10
70969;BMP280;58630;43.022;25.100;2023-06-22T11:46:04;;;;28.10
70969;BMP280;58630;43.022;25.100;2023-06-22T11:48:30;;;;28.20
70969;BMP280;58630;43.022;25.100;2023-06-22T11:50:55;;;;28.20
70969;BMP280;58630;43.022;25.100;2023-06-22T11:53:21;;;;28.20
70969;BMP280;58630;43.022;25.100;2023-06-22T11:55:47;;;;28.10
70969;BMP280;58630;43.022;25.100;2023-06-22T11:58:13;;;;28.20
70969;BMP280;58630;43.022;25.100;2023-06-22T12:00:38;;;;28.20
70969;BMP280;58630;43.022;25.100;2023-06-22T12:03:04;;;;28.40
70969;BMP280;58630;43.022;25.100;2023-06-22T12:05:29;;;;28.50
70969;BMP280;58630;43.022;25.100;2023-06-22T12:07:55;;;;28.50
70969;BMP280;58630;43.022;25.100;2023-06-22T12:10:21;;;;28.40
70969;BMP280;58630;43.022;25.100;2023-06-22T12:12:47;;;;28.40
70969;BMP280;58630;43.022;25.100;2023-06-22T12:15:13;;;;28.50
70969;BMP280;58630;43.022;25.100;2023-06-22T12:17:38;;;;28.50
70969;BMP280;58630;43.022;25.100;2023-06-22T12:20:04;;;;28.40
70969;BMP280;58630;43.022;25.100;2023-06-22T12:22:34;;;;28.50
70969;BMP280;58630;43.022;25.100;2023-06-22T12:24:59;;;;28.60
70969;BMP280;58630;43.022;25.100;2023-06-22T12:27:25;;;;28.60
70969;BMP280;58630;43.022;25.100;2023-06-22T12:29:51;;;;28.70
70969;BMP280;58630;43.022;25.100;2023-06-22T12:32:17;;;;28.70
70969;BMP280;58630;43.022;25.100;2023-06-22T12:34:43;;;;28.70
70969;BMP280;58630;43.022;25.100;2023-06-22T12:37:08;;;;28.80
70969;BMP280;58630;43.022;25.100;2023-06-22T12:39:34;;;;28.80
70969;BMP280;58630;43.022;25.100;2023-06-22T12:41:59;;;;29.00
70969;BMP280;58630;43.022;25.100;2023-06-22T12:44:25;;;;29.10
70969;BMP280;58630;43.022;25.100;2023-06-22T12:46:50;;;;29.00
70969;BMP280;58630;43.022;25.100;2023-06-22T12:49:16;;;;29.10
70969;BMP280;58630;43.022;25.100;2023-06-22T12:51:42;;;;29.50
70969;BMP280;58630;43.022;25.100;2023-06-22T12:54:08;;;;29.60
70969;BMP280;58630;43.022;25.100;2023-06-22T12:56:33;;;;29.40
70969;BMP280;58630;43.022;25.100;2023-06-22T12:58:59;;;;29.40
70969;BMP280;58630;43.022;25.100;2023-06-22T13:01:28;;;;29.80
70969;BMP280;58630;43.022;25.100;2023-06-22T13:03:53;;;;29.90
70969;BMP280;58630;43.022;25.100;2023-06-22T13:06:19;;;;30.00
70969;BMP280;58630;43.022;25.100;2023-06-22T13:08:44;;;;30.00
70969;BMP280;58630;43.022;25.100;2023-06-22T13:11:10;;;;29.90
70969;BMP280;58630;43.022;25.100;2023-06-22T13:13:35;;;;29.70
70969;BMP280;58630;43.022;25.100;2023-06-22T13:16:01;;;;29.60
70969;BMP280;58630;43.022;25.100;2023-06-22T13:18:27;;;;29.90
70969;BMP280;58630;43.022;25.100;2023-06-22T13:20:52;;;;30.10
70969;BMP280;58630;43.022;25.100;2023-06-22T13:23:20;;;;30.30
70969;BMP280;58630;43.022;25.100;2023-06-22T13:25:46;;;;30.10
70969;BMP280;58630;43.022;25.100;2023-06-22T13:28:11;;;;30.20
70969;BMP280;58630;43.022;25.100;2023-06-22T13:30:39;;;;30.20
70969;BMP280;58630;43.022;25.100;2023-06-22T13:33:05;;;;30.20
70969;BMP280;58630;43.022;25.100;2023-06-22T13:35:30;;;;30.10
70969;BMP280;58630;43.022;25.100;2023-06-22T13:37:56;;;;30.10
70969;BMP280;58630;43.022;25.100;2023-06-22T13:40:22;;;;30.10
70969;BMP280;58630;43.022;25.100;2023-06-22T13:42:47;;;;30.10
70969;BMP280;58630;43.022;25.100;2023-06-22T13:45:13;;;;30.10
70969;BMP280;58630;43.022;25.100;2023-06-22T13:47:38;;;;30.20
70969;BMP280;58630;43.022;25.100;2023-06-22T13:50:04;;;;30.20
70969;BMP280;58630;43.022;25.100;2023-06-22T13:52:30;;;;30.40
70969;BMP280;58630;43.022;25.100;2023-06-22T13:54:55;;;;30.30
70969;BMP280;58630;43.022;25.100;2023-06-22T13:57:21;;;;30.30
70969;BMP280;58630;43.022;25.100;2023-06-22T13:59:47;;;;30.20
70969;BMP280;58630;43.022;25.100;2023-06-22T14:02:12;;;;30.20
70969;BMP280;58630;43.022;25.100;2023-06-22T14:04:38;;;;30.50
70969;BMP280;58630;43.022;25.100;2023-06-22T14:07:03;;;;30.60
70969;BMP280;58630;43.022;25.100;2023-06-22T14:09:29;;;;30.40
70969;BMP280;58630;43.022;25.100;2023-06-22T14:11:54;;;;30.30
70969;BMP280;58630;43.022;25.100;2023-06-22T14:14:21;;;;30.30
70969;BMP280;58630;43.022;25.100;2023-06-22T14:16:46;;;;30.30
70969;BMP280;58630;43.022;25.100;2023-06-22T14:19:13;;;;30.30
70969;BMP280;58630;43.022;25.100;2023-06-22T14:21:38;;;;30.30
70969;BMP280;58630;43.022;25.100;2023-06-22T14:24:04;;;;30.30
70969;BMP280;58630;43.022;25.100;2023-06-22T14:26:29;;;;30.30
70969;BMP280;58630;43.022;25.100;2023-06-22T14:28:55;;;;30.30
70969;BMP280;58630;43.022;25.100;2023-06-22T14:31:22;;;;30.30
70969;BMP280;58630;43.022;25.100;2023-06-22T14:33:48;;;;30.40
70969;BMP280;58630;43.022;25.100;2023-06-22T14:36:14;;;;30.60
70969;BMP280;58630;43.022;25.100;2023-06-22T14:38:40;;;;30.60
70969;BMP280;58630;43.022;25.100;2023-06-22T14:41:05;;;;30.60
70969;BMP280;58630;43.022;25.100;2023-06-22T14:43:31;;;;30.60
70969;BMP280;58630;43.022;25.100;2023-06-22T14:45:56;;;;30.60
70969;BMP280;58630;43.022;25.100;2023-06-22T14:48:22;;;;30.20
70969;BMP280;58630;43.022;25.100;2023-06-22T14:50:47;;;;29.60
70969;BMP280;58630;43.022;25.100;2023-06-22T14:53:13;;;;29.20
70969;BMP280;58630;43.022;25.100;2023-06-22T14:55:39;;;;29.00
70969;BMP280;58630;43.022;25.100;2023-06-22T14:58:05;;;;28.70
70969;BMP280;58630;43.022;25.100;2023-06-22T15:00:30;;;;28.70
70969;BMP280;58630;43.022;25.100;2023-06-22T15:02:56;;;;28.50
70969;BMP280;58630;43.022;25.100;2023-06-22T15:05:22;;;;28.50
70969;BMP280;58630;43.022;25.100;2023-06-22T15:07:49;;;;28.60
70969;BMP280;58630;43.022;25.100;2023-06-22T15:10:15;;;;28.40
70969;BMP280;58630;43.022;25.100;2023-06-22T15:12:40;;;;28.30
70969;BMP280;58630;43.022;25.100;2023-06-22T15:15:06;;;;28.10
70969;BMP280;58630;43.022;25.100;2023-06-22T15:17:32;;;;27.90
70969;BMP280;58630;43.022;25.100;2023-06-22T15:19:57;;;;27.90
70969;BMP280;58630;43.022;25.100;2023-06-22T15:22:23;;;;28.40
70969;BMP280;58630;43.022;25.100;2023-06-22T15:24:48;;;;28.80
70969;BMP280;58630;43.022;25.100;2023-06-22T15:27:14;;;;29.10
70969;BMP280;58630;43.022;25.100;2023-06-22T15:29:40;;;;29.40
70969;BMP280;58630;43.022;25.100;2023-06-22T15:32:06;;;;29.70
70969;BMP280;58630;43.022;25.100;2023-06-22T15:34:32;;;;29.90
70969;BMP280;58630;43.022;25.100;2023-06-22T15:36:58;;;;30.10
70969;BMP280;58630;43.022;25.100;2023-06-22T15:39:24;;;;30.10
70969;BMP280;58630;43.022;25.100;2023-06-22T15:41:52;;;;30.10
70969;BMP280;58630;43.022;25.100;2023-06-22T15:44:19;;;;30.20
70969;BMP280;58630;43.022;25.100;2023-06-22T15:46:45;;;;30.20
70969;BMP280;58630;43.022;25.100;2023-06-22T15:49:11;;;;30.30
70969;BMP280;58630;43.022;25.100;2023-06-22T15:51:36;;;;30.30